Time;durP1;ratioP1;P1;durP2;ratioP2;P2;SDS_P1;SDS_P2;PMS_P1;PMS_P2;Temp;Humidity;BMP_temperature;BMP_pressure;BME280_temperature;BME280_humidity;BME280_pressure;Samples;Min_cycle;Max_cycle;Signal;HPM_P1;HPM_P2
2022/06/27 00:07:38;;;;;;;2.50;0.80;;;;;;;;;;5103020;27;20116;-61
2022/06/27 00:10:05;;;;;;;2.65;0.80;;;;;;;;;;5103157;27;20035;-61
2022/06/27 00:12:32;;;;;;;3.13;0.77;;;;;;;;;;5102920;27;20036;-62
2022/06/27 00:14:59;;;;;;;1.88;0.60;;;;;;;;;;5102043;27;20052;-62
2022/06/27 00:17:28;;;;;;;2.55;0.65;;;;;;;;;;5101329;27;20712;-63
2022/06/27 00:19:55;;;;;;;3.28;0.60;;;;;;;;;;5102158;27;20059;-62
2022/06/27 00:22:22;;;;;;;2.15;0.60;;;;;;;;;;5104532;27;20092;-61
2022/06/27 00:24:48;;;;;;;2.40;0.70;;;;;;;;;;5102745;27;20126;-61
2022/06/27 00:27:15;;;;;;;3.13;0.80;;;;;;;;;;5101777;27;20177;-64
2022/06/27 00:29:42;;;;;;;2.40;0.80;;;;;;;;;;5102495;27;20241;-63
2022/06/27 00:32:09;;;;;;;2.63;0.82;;;;;;;;;;5103217;27;20054;-64
2022/06/27 00:34:36;;;;;;;3.38;1.02;;;;;;;;;;5083421;28;20043;-63
2022/06/27 00:37:02;;;;;;;3.00;0.80;;;;;;;;;;5104415;28;20519;-64
2022/06/27 00:39:29;;;;;;;8.23;5.63;;;;;;;;;;5104096;27;20088;-65
2022/06/27 00:41:56;;;;;;;6.00;2.65;;;;;;;;;;5102117;28;20043;-64
2022/06/27 00:44:42;;;;;;;3.60;1.90;;;;;;;;;;5102216;28;20040;-65
2022/06/27 00:47:09;;;;;;;3.10;0.90;;;;;;;;;;5090065;28;20044;-65
2022/06/27 00:49:36;;;;;;;2.38;0.77;;;;;;;;;;5093730;28;20532;-65
2022/06/27 00:52:04;;;;;;;7.95;1.20;;;;;;;;;;5103803;28;20035;-64
2022/06/27 00:54:31;;;;;;;3.72;1.17;;;;;;;;;;5102217;28;20081;-64
2022/06/27 00:56:58;;;;;;;2.47;0.80;;;;;;;;;;5102328;28;20072;-64
2022/06/27 00:59:24;;;;;;;2.42;0.70;;;;;;;;;;5103752;28;20032;-65
2022/06/27 01:01:51;;;;;;;4.05;1.60;;;;;;;;;;5103751;28;20035;-62
2022/06/27 01:04:18;;;;;;;3.00;1.02;;;;;;;;;;5104082;27;20158;-62
2022/06/27 01:06:44;;;;;;;3.55;0.90;;;;;;;;;;5102840;28;20115;-64
2022/06/27 01:09:11;;;;;;;3.20;1.00;;;;;;;;;;5103913;28;20976;-62
2022/06/27 01:11:38;;;;;;;3.33;1.10;;;;;;;;;;5102609;28;20169;-62
2022/06/27 01:14:04;;;;;;;2.70;0.90;;;;;;;;;;5072054;28;20059;-62
2022/06/27 01:16:31;;;;;;;4.20;1.65;;;;;;;;;;5072402;28;20036;-63
2022/06/27 01:18:57;;;;;;;4.32;1.20;;;;;;;;;;5071578;28;20036;-63
2022/06/27 01:21:25;;;;;;;6.13;0.90;;;;;;;;;;5070622;28;20147;-62
2022/06/27 01:23:52;;;;;;;2.92;0.80;;;;;;;;;;5072041;28;20036;-62
2022/06/27 01:26:20;;;;;;;2.92;0.80;;;;;;;;;;5071263;28;20040;-61
2022/06/27 01:28:46;;;;;;;2.97;0.93;;;;;;;;;;5072687;28;20040;-63
2022/06/27 01:31:14;;;;;;;2.88;1.00;;;;;;;;;;5069439;28;20036;-63
2022/06/27 01:33:40;;;;;;;4.10;1.05;;;;;;;;;;5069853;28;20450;-62
2022/06/27 01:38:53;;;;;;;5.22;2.40;;;;;;;;;;5076408;28;20071;-62
2022/06/27 01:41:20;;;;;;;4.05;1.10;;;;;;;;;;5099777;27;20170;-63
2022/06/27 01:43:48;;;;;;;3.35;0.80;;;;;;;;;;5105472;27;20036;-61
2022/06/27 01:46:15;;;;;;;3.70;1.05;;;;;;;;;;5106838;27;20134;-64
2022/06/27 01:48:42;;;;;;;2.70;0.85;;;;;;;;;;5104744;27;20067;-65
2022/06/27 01:51:09;;;;;;;3.15;0.80;;;;;;;;;;5106004;27;20039;-64
2022/06/27 01:53:37;;;;;;;2.95;0.88;;;;;;;;;;5105475;27;20055;-65
2022/06/27 01:56:04;;;;;;;4.43;1.17;;;;;;;;;;5106699;27;20069;-64
2022/06/27 01:58:30;;;;;;;4.93;1.10;;;;;;;;;;5104220;27;20050;-64
2022/06/27 02:00:58;;;;;;;1.95;0.60;;;;;;;;;;5106820;27;20039;-64
2022/06/27 02:03:24;;;;;;;3.97;0.73;;;;;;;;;;5105649;27;20549;-64
2022/06/27 02:05:54;;;;;;;3.17;0.80;;;;;;;;;;5106435;27;20433;-66
2022/06/27 02:08:21;;;;;;;2.63;0.77;;;;;;;;;;5097795;27;20040;-65
2022/06/27 02:10:48;;;;;;;3.60;1.42;;;;;;;;;;5103451;27;20035;-64
2022/06/27 02:13:15;;;;;;;3.15;0.90;;;;;;;;;;5102919;27;20046;-64
2022/06/27 02:16:00;;;;;;;2.10;0.73;;;;;;;;;;5103615;27;20140;-64
2022/06/27 02:18:27;;;;;;;3.72;1.50;;;;;;;;;;5102981;27;20163;-65
2022/06/27 02:20:54;;;;;;;3.50;1.10;;;;;;;;;;5105414;27;20043;-65
2022/06/27 02:23:20;;;;;;;3.20;1.00;;;;;;;;;;5089758;27;20071;-66
2022/06/27 02:25:47;;;;;;;2.47;0.88;;;;;;;;;;5089204;27;20579;-66
2022/06/27 02:28:15;;;;;;;2.67;0.80;;;;;;;;;;5091696;27;20059;-66
2022/06/27 02:30:41;;;;;;;4.78;1.00;;;;;;;;;;5092884;27;20138;-67
2022/06/27 02:33:08;;;;;;;2.45;0.70;;;;;;;;;;5091265;27;20032;-63
2022/06/27 02:35:35;;;;;;;2.60;0.90;;;;;;;;;;5105590;27;20856;-64
2022/06/27 02:38:02;;;;;;;3.03;0.73;;;;;;;;;;5105057;27;20051;-64
2022/06/27 02:40:29;;;;;;;2.50;0.80;;;;;;;;;;5104617;27;21503;-64
2022/06/27 02:42:58;;;;;;;5.88;1.70;;;;;;;;;;5105501;27;20064;-65
2022/06/27 02:45:29;;;;;;;6.20;1.17;;;;;;;;;;5103862;27;20465;-64
2022/06/27 02:47:58;;;;;;;5.88;1.98;;;;;;;;;;5105655;27;20089;-63
2022/06/27 02:50:26;;;;;;;3.45;0.98;;;;;;;;;;5097816;27;20330;-65
2022/06/27 02:52:57;;;;;;;4.68;1.10;;;;;;;;;;5106916;27;20474;-64
2022/06/27 02:55:25;;;;;;;6.13;1.40;;;;;;;;;;5105059;27;20548;-59
2022/06/27 02:57:54;;;;;;;3.33;1.00;;;;;;;;;;5105130;27;20124;-62
2022/06/27 03:00:21;;;;;;;2.90;1.00;;;;;;;;;;5105338;27;20067;-61
2022/06/27 03:02:48;;;;;;;2.95;0.73;;;;;;;;;;5090482;27;20039;-64
2022/06/27 03:05:14;;;;;;;3.58;1.17;;;;;;;;;;5104749;27;20039;-66
2022/06/27 03:07:42;;;;;;;2.75;0.93;;;;;;;;;;5105164;27;20039;-65
2022/06/27 03:10:09;;;;;;;3.70;0.90;;;;;;;;;;5102833;27;20078;-65
2022/06/27 03:12:36;;;;;;;5.07;1.30;;;;;;;;;;5103060;27;20054;-65
2022/06/27 03:15:03;;;;;;;4.78;1.20;;;;;;;;;;5105212;27;20047;-64
2022/06/27 03:17:29;;;;;;;2.88;1.10;;;;;;;;;;5103508;27;20048;-65
2022/06/27 03:19:56;;;;;;;4.85;1.02;;;;;;;;;;5104187;27;20111;-65
2022/06/27 03:22:23;;;;;;;2.67;0.75;;;;;;;;;;5104709;27;20039;-65
2022/06/27 03:24:49;;;;;;;3.28;0.90;;;;;;;;;;5083192;27;20044;-65
2022/06/27 03:27:16;;;;;;;3.95;1.70;;;;;;;;;;5096383;27;20077;-64
2022/06/27 03:29:43;;;;;;;8.85;3.40;;;;;;;;;;5103041;27;20075;-64
2022/06/27 03:32:10;;;;;;;8.50;3.40;;;;;;;;;;5103806;27;20446;-65
2022/06/27 03:34:36;;;;;;;10.60;3.67;;;;;;;;;;5103487;27;20071;-63
2022/06/27 03:37:03;;;;;;;5.63;1.83;;;;;;;;;;5104163;27;20066;-65
2022/06/27 03:39:30;;;;;;;4.95;1.25;;;;;;;;;;5103848;27;20119;-65
2022/06/27 03:41:56;;;;;;;4.03;1.23;;;;;;;;;;5106767;27;20051;-65
2022/06/27 03:44:23;;;;;;;3.30;1.13;;;;;;;;;;5104754;27;20511;-65
2022/06/27 03:46:49;;;;;;;5.63;2.45;;;;;;;;;;5104050;27;20114;-65
2022/06/27 03:52:01;;;;;;;5.45;2.25;;;;;;;;;;5104379;27;20042;-64
2022/06/27 03:54:28;;;;;;;6.00;2.10;;;;;;;;;;5103233;27;20058;-64
2022/06/27 03:56:57;;;;;;;7.30;3.00;;;;;;;;;;5103745;27;20241;-65
2022/06/27 03:59:24;;;;;;;11.98;3.58;;;;;;;;;;5103806;27;20049;-65
2022/06/27 04:01:51;;;;;;;8.00;3.63;;;;;;;;;;5104026;27;20092;-66
2022/06/27 04:04:17;;;;;;;8.82;2.58;;;;;;;;;;5103339;27;20055;-65
2022/06/27 04:06:44;;;;;;;5.18;1.80;;;;;;;;;;5105140;27;20043;-65
2022/06/27 04:09:10;;;;;;;5.38;1.70;;;;;;;;;;5103257;27;20163;-64
2022/06/27 04:11:37;;;;;;;7.00;1.50;;;;;;;;;;5102409;27;20121;-64
2022/06/27 04:14:04;;;;;;;6.32;1.83;;;;;;;;;;5103097;27;20107;-64
2022/06/27 04:16:30;;;;;;;5.68;2.45;;;;;;;;;;5102857;27;20134;-64
2022/06/27 04:18:57;;;;;;;7.68;3.38;;;;;;;;;;5102442;27;20039;-64
2022/06/27 04:21:24;;;;;;;12.32;4.13;;;;;;;;;;5073555;28;20111;-65
2022/06/27 04:23:50;;;;;;;6.68;3.33;;;;;;;;;;5082230;28;20032;-60
2022/06/27 04:26:17;;;;;;;8.60;3.65;;;;;;;;;;5083272;28;20040;-61
2022/06/27 04:28:44;;;;;;;8.25;4.03;;;;;;;;;;5082173;28;20051;-63
2022/06/27 04:31:11;;;;;;;13.65;3.60;;;;;;;;;;5081942;28;20091;-65
2022/06/27 04:33:38;;;;;;;6.40;2.67;;;;;;;;;;5081290;28;20048;-64
2022/06/27 04:36:05;;;;;;;6.03;2.33;;;;;;;;;;5083613;28;20115;-63
2022/06/27 04:38:32;;;;;;;8.85;3.08;;;;;;;;;;5082505;28;20063;-62
2022/06/27 04:40:59;;;;;;;6.68;2.25;;;;;;;;;;5083677;28;20036;-64
2022/06/27 04:43:27;;;;;;;6.60;1.98;;;;;;;;;;5081205;28;20072;-64
2022/06/27 04:45:54;;;;;;;13.68;4.78;;;;;;;;;;5082581;28;20063;-64
2022/06/27 04:48:21;;;;;;;13.80;5.43;;;;;;;;;;5081730;28;20036;-64
2022/06/27 04:50:48;;;;;;;14.27;5.22;;;;;;;;;;5080622;28;21871;-63
2022/06/27 04:53:14;;;;;;;11.52;4.00;;;;;;;;;;5082004;28;20497;-63
2022/06/27 04:55:41;;;;;;;8.02;3.15;;;;;;;;;;5081744;28;20067;-64
2022/06/27 04:58:08;;;;;;;8.07;3.17;;;;;;;;;;5082597;28;20051;-64
2022/06/27 05:00:35;;;;;;;9.18;2.50;;;;;;;;;;5081714;28;20773;-64
2022/06/27 05:03:03;;;;;;;6.80;2.15;;;;;;;;;;5081181;28;20040;-64
2022/06/27 05:05:29;;;;;;;4.82;1.80;;;;;;;;;;5082103;28;20575;-64
2022/06/27 05:07:57;;;;;;;5.07;1.88;;;;;;;;;;5083283;28;20043;-64
2022/06/27 05:10:23;;;;;;;6.07;1.60;;;;;;;;;;5081433;28;20035;-64
2022/06/27 05:12:50;;;;;;;5.30;1.80;;;;;;;;;;5082220;28;20044;-66
2022/06/27 05:15:18;;;;;;;4.32;1.30;;;;;;;;;;5082100;28;20044;-63
2022/06/27 05:17:44;;;;;;;8.55;2.35;;;;;;;;;;5080215;28;20072;-64
2022/06/27 05:20:12;;;;;;;6.90;2.90;;;;;;;;;;5080998;28;20127;-63
2022/06/27 05:22:39;;;;;;;6.88;2.72;;;;;;;;;;5063211;28;20028;-63
2022/06/27 05:25:07;;;;;;;6.97;2.17;;;;;;;;;;5082269;28;20534;-63
2022/06/27 05:27:35;;;;;;;4.70;1.40;;;;;;;;;;5082274;28;20066;-63
2022/06/27 05:30:03;;;;;;;5.10;1.40;;;;;;;;;;5080399;28;20135;-64
2022/06/27 05:32:29;;;;;;;5.38;1.88;;;;;;;;;;5081831;28;20250;-64
2022/06/27 05:34:56;;;;;;;5.95;1.45;;;;;;;;;;5083216;28;20151;-63
2022/06/27 05:37:23;;;;;;;4.72;1.52;;;;;;;;;;5081532;28;20110;-64
2022/06/27 05:39:50;;;;;;;3.45;1.48;;;;;;;;;;5081715;28;20115;-64
2022/06/27 05:42:17;;;;;;;4.68;1.40;;;;;;;;;;5050936;28;20029;-64
2022/06/27 05:44:44;;;;;;;6.30;1.38;;;;;;;;;;5082822;28;20058;-64
2022/06/27 05:47:11;;;;;;;5.72;1.40;;;;;;;;;;5082723;28;20085;-63
2022/06/27 05:49:39;;;;;;;4.40;1.50;;;;;;;;;;5082466;28;20044;-65
2022/06/27 05:52:05;;;;;;;4.10;1.48;;;;;;;;;;5082722;28;20127;-64
2022/06/27 05:54:35;;;;;;;4.03;1.55;;;;;;;;;;5082054;28;20048;-63
2022/06/27 05:57:03;;;;;;;5.72;1.63;;;;;;;;;;5081777;28;20043;-64
2022/06/27 05:59:31;;;;;;;5.32;1.67;;;;;;;;;;5079814;28;20063;-64
2022/06/27 06:02:00;;;;;;;4.95;2.10;;;;;;;;;;5083268;28;20051;-65
2022/06/27 06:04:27;;;;;;;7.63;2.10;;;;;;;;;;5085065;28;20135;-63
2022/06/27 06:06:54;;;;;;;8.05;2.30;;;;;;;;;;5085095;28;20024;-65
2022/06/27 06:09:21;;;;;;;4.50;1.70;;;;;;;;;;5084669;28;20036;-64
2022/06/27 06:11:48;;;;;;;4.63;1.52;;;;;;;;;;5085855;28;20032;-64
2022/06/27 06:14:19;;;;;;;6.05;1.90;;;;;;;;;;5086686;28;20043;-65
2022/06/27 06:16:47;;;;;;;6.25;2.13;;;;;;;;;;5083397;28;20462;-64
2022/06/27 06:19:14;;;;;;;8.27;2.33;;;;;;;;;;5084940;28;20040;-64
2022/06/27 06:21:41;;;;;;;7.88;2.17;;;;;;;;;;5083190;28;20101;-64
2022/06/27 06:24:08;;;;;;;5.43;2.08;;;;;;;;;;5085579;28;20450;-63
2022/06/27 06:26:35;;;;;;;5.82;1.95;;;;;;;;;;5085670;28;20036;-65
2022/06/27 06:29:12;;;;;;;5.35;1.73;;;;;;;;;;5087415;28;20152;-65
2022/06/27 06:31:46;;;;;;;5.50;1.92;;;;;;;;;;5083690;28;20073;-64
2022/06/27 06:34:14;;;;;;;11.68;1.92;;;;;;;;;;5084538;28;20035;-64
2022/06/27 06:36:41;;;;;;;5.45;2.28;;;;;;;;;;5085656;28;20047;-64
2022/06/27 06:39:08;;;;;;;5.60;1.95;;;;;;;;;;5085282;28;20089;-64
2022/06/27 06:41:36;;;;;;;5.18;1.77;;;;;;;;;;5084996;28;20043;-63
2022/06/27 06:44:05;;;;;;;4.25;2.00;;;;;;;;;;5085953;28;20123;-64
2022/06/27 06:46:32;;;;;;;7.47;2.22;;;;;;;;;;5085957;28;20035;-65
2022/06/27 06:49:02;;;;;;;4.43;2.00;;;;;;;;;;5086515;28;20453;-64
2022/06/27 06:51:36;;;;;;;4.43;1.60;;;;;;;;;;5086215;28;20048;-64
2022/06/27 06:54:07;;;;;;;4.80;1.67;;;;;;;;;;5086161;28;20496;-64
2022/06/27 06:56:34;;;;;;;5.80;1.70;;;;;;;;;;5086012;28;20040;-64
2022/06/27 06:59:02;;;;;;;3.55;1.50;;;;;;;;;;5084577;28;20399;-65
2022/06/27 07:01:29;;;;;;;4.38;1.45;;;;;;;;;;5083859;28;20032;-64
2022/06/27 07:03:59;;;;;;;8.70;1.80;;;;;;;;;;5084784;28;20092;-64
2022/06/27 07:06:26;;;;;;;4.35;1.35;;;;;;;;;;5084042;28;21505;-63
2022/06/27 07:08:57;;;;;;;5.85;1.70;;;;;;;;;;5085804;28;20043;-64
2022/06/27 07:11:36;;;;;;;4.32;1.73;;;;;;;;;;5083039;28;20152;-64
2022/06/27 07:14:04;;;;;;;4.28;1.50;;;;;;;;;;5085677;28;20044;-62
2022/06/27 07:16:31;;;;;;;5.75;2.13;;;;;;;;;;5084758;28;20416;-64
2022/06/27 07:19:00;;;;;;;3.83;1.70;;;;;;;;;;5084378;28;20058;-64
2022/06/27 07:21:30;;;;;;;7.03;2.80;;;;;;;;;;5083054;28;20769;-64
2022/06/27 07:23:57;;;;;;;6.75;2.90;;;;;;;;;;5085404;28;20285;-64
2022/06/27 07:26:27;;;;;;;10.32;3.40;;;;;;;;;;5086399;28;20789;-64
2022/06/27 07:28:54;;;;;;;6.45;2.47;;;;;;;;;;5086273;28;20086;-64
2022/06/27 07:31:21;;;;;;;5.97;2.65;;;;;;;;;;5085357;28;20052;-64
2022/06/27 07:33:51;;;;;;;5.55;2.88;;;;;;;;;;5085661;28;20043;-64
2022/06/27 07:36:19;;;;;;;6.15;3.20;;;;;;;;;;5054185;28;20089;-64
2022/06/27 07:38:47;;;;;;;8.02;3.80;;;;;;;;;;5085132;28;20046;-63
2022/06/27 07:41:15;;;;;;;11.48;4.05;;;;;;;;;;5085029;28;20155;-64
2022/06/27 07:43:44;;;;;;;11.95;5.05;;;;;;;;;;5085198;28;20044;-63
2022/06/27 07:46:11;;;;;;;10.38;4.90;;;;;;;;;;5085667;28;20036;-63
2022/06/27 07:48:38;;;;;;;9.60;4.60;;;;;;;;;;5084522;28;20055;-63
2022/06/27 07:51:05;;;;;;;9.23;4.55;;;;;;;;;;5066207;28;20107;-63
2022/06/27 07:53:32;;;;;;;10.18;3.90;;;;;;;;;;5100978;27;20089;-62
2022/06/27 07:56:03;;;;;;;8.63;4.20;;;;;;;;;;5083907;28;20032;-62
2022/06/27 07:58:33;;;;;;;11.38;5.88;;;;;;;;;;5084454;28;20062;-63
2022/06/27 08:01:01;;;;;;;13.13;7.50;;;;;;;;;;5084482;28;20040;-63
2022/06/27 08:03:44;;;;;;;18.17;10.57;;;;;;;;;;5084182;28;20063;-63
2022/06/27 08:06:14;;;;;;;16.40;9.57;;;;;;;;;;5086360;28;20107;-64
2022/06/27 08:08:42;;;;;;;20.63;12.73;;;;;;;;;;5085141;28;20372;-63
2022/06/27 08:11:11;;;;;;;23.45;13.75;;;;;;;;;;5085757;28;20160;-63
2022/06/27 08:13:38;;;;;;;20.48;12.43;;;;;;;;;;5082558;28;20043;-63
2022/06/27 08:16:05;;;;;;;19.27;10.90;;;;;;;;;;5081282;28;20043;-63
2022/06/27 08:18:32;;;;;;;15.40;8.43;;;;;;;;;;5080924;28;20043;-63
2022/06/27 08:21:02;;;;;;;10.82;6.07;;;;;;;;;;5081737;28;20039;-64
2022/06/27 08:23:31;;;;;;;9.30;4.50;;;;;;;;;;5081544;28;20904;-64
2022/06/27 08:25:58;;;;;;;10.27;4.40;;;;;;;;;;5082488;28;20131;-65
2022/06/27 08:28:28;;;;;;;9.45;3.97;;;;;;;;;;5081803;28;20040;-64
2022/06/27 08:30:54;;;;;;;8.68;3.55;;;;;;;;;;5081238;28;20048;-63
2022/06/27 08:33:23;;;;;;;7.47;3.35;;;;;;;;;;5081458;28;20038;-63
2022/06/27 08:35:51;;;;;;;6.57;2.90;;;;;;;;;;5082796;28;20553;-63
2022/06/27 08:38:19;;;;;;;7.07;3.20;;;;;;;;;;5082941;28;20056;-63
2022/06/27 08:40:47;;;;;;;6.60;3.20;;;;;;;;;;5093822;27;20413;-64
2022/06/27 08:43:14;;;;;;;5.68;3.03;;;;;;;;;;5091517;28;20068;-65
2022/06/27 08:45:43;;;;;;;6.75;3.17;;;;;;;;;;5101519;28;20039;-64
2022/06/27 08:48:11;;;;;;;6.60;2.83;;;;;;;;;;5103070;28;20051;-65
2022/06/27 08:50:38;;;;;;;6.15;2.70;;;;;;;;;;5101196;28;20042;-64
2022/06/27 08:53:05;;;;;;;5.28;2.58;;;;;;;;;;5103522;28;20380;-63
2022/06/27 08:55:33;;;;;;;6.40;2.65;;;;;;;;;;5101704;28;20035;-65
2022/06/27 08:58:11;;;;;;;9.40;2.60;;;;;;;;;;5077483;28;20056;-64
2022/06/27 09:00:40;;;;;;;5.47;2.50;;;;;;;;;;5081718;28;20127;-64
2022/06/27 09:03:10;;;;;;;6.18;2.65;;;;;;;;;;5081261;28;20036;-64
2022/06/27 09:05:37;;;;;;;7.05;2.75;;;;;;;;;;5081057;28;20032;-64
2022/06/27 09:08:06;;;;;;;7.05;2.35;;;;;;;;;;5080366;28;20081;-64
2022/06/27 09:10:36;;;;;;;12.27;2.50;;;;;;;;;;5081199;28;20688;-65
2022/06/27 09:13:13;;;;;;;11.15;2.42;;;;;;;;;;5081343;28;20416;-63
2022/06/27 09:15:40;;;;;;;5.82;2.70;;;;;;;;;;5081981;28;20056;-63
2022/06/27 09:18:09;;;;;;;6.85;2.50;;;;;;;;;;5083239;28;20058;-63
2022/06/27 09:20:49;;;;;;;7.75;3.05;;;;;;;;;;5080366;28;20070;-63
2022/06/27 09:23:39;;;;;;;6.07;2.40;;;;;;;;;;5083103;28;20035;-63
2022/06/27 09:26:09;;;;;;;6.25;2.45;;;;;;;;;;5098710;28;20437;-62
2022/06/27 09:28:41;;;;;;;5.30;2.40;;;;;;;;;;5087224;28;20145;-63
2022/06/27 09:31:10;;;;;;;5.30;2.37;;;;;;;;;;5102637;28;20776;-63
2022/06/27 09:33:38;;;;;;;5.63;2.65;;;;;;;;;;5101602;28;20077;-63
2022/06/27 09:36:13;;;;;;;5.85;2.70;;;;;;;;;;5104942;27;20108;-63
2022/06/27 09:38:43;;;;;;;7.55;2.97;;;;;;;;;;5103838;27;20365;-63
2022/06/27 09:41:14;;;;;;;7.57;2.75;;;;;;;;;;5093940;27;20050;-63
2022/06/27 09:43:47;;;;;;;7.18;2.70;;;;;;;;;;5097738;27;20675;-63
2022/06/27 09:46:15;;;;;;;6.13;2.75;;;;;;;;;;5106532;27;20525;-64
2022/06/27 09:48:46;;;;;;;9.02;2.40;;;;;;;;;;5105293;27;20468;-64
2022/06/27 09:51:18;;;;;;;8.18;2.25;;;;;;;;;;5105490;27;20031;-64
2022/06/27 09:53:47;;;;;;;7.07;2.55;;;;;;;;;;5096973;27;20510;-63
2022/06/27 09:56:15;;;;;;;7.03;2.60;;;;;;;;;;5105803;27;20035;-63
2022/06/27 09:58:42;;;;;;;6.18;2.33;;;;;;;;;;5105819;27;20134;-64
2022/06/27 10:01:10;;;;;;;8.00;2.50;;;;;;;;;;5105640;27;20855;-63
2022/06/27 10:03:37;;;;;;;4.22;1.90;;;;;;;;;;5106035;27;20044;-64
2022/06/27 10:06:05;;;;;;;6.93;2.10;;;;;;;;;;5104572;27;20528;-63
2022/06/27 10:08:33;;;;;;;8.90;2.47;;;;;;;;;;5104270;27;20140;-64
2022/06/27 10:11:08;;;;;;;5.97;2.50;;;;;;;;;;5106246;27;20039;-64
2022/06/27 10:13:38;;;;;;;5.80;2.40;;;;;;;;;;5105989;27;20092;-63
2022/06/27 10:16:10;;;;;;;8.88;2.63;;;;;;;;;;5105442;27;20031;-64
2022/06/27 10:18:53;;;;;;;4.45;2.17;;;;;;;;;;5105353;27;20047;-63
2022/06/27 10:21:46;;;;;;;5.30;2.67;;;;;;;;;;5105556;27;20478;-64
2022/06/27 10:24:21;;;;;;;7.20;2.45;;;;;;;;;;5099937;27;20462;-63
2022/06/27 10:26:49;;;;;;;9.32;2.35;;;;;;;;;;5104712;27;20776;-63
2022/06/27 10:29:34;;;;;;;4.75;1.95;;;;;;;;;;5106463;27;22432;-64
2022/06/27 10:32:02;;;;;;;7.72;2.50;;;;;;;;;;5105186;27;20155;-64
2022/06/27 10:34:40;;;;;;;10.48;2.17;;;;;;;;;;5105644;27;20043;-63
2022/06/27 10:37:25;;;;;;;5.05;2.40;;;;;;;;;;5105748;27;20039;-63
2022/06/27 10:39:52;;;;;;;4.00;2.03;;;;;;;;;;5103865;27;20088;-63
2022/06/27 10:42:37;;;;;;;5.85;2.28;;;;;;;;;;5105804;27;20197;-63
2022/06/27 10:45:23;;;;;;;8.60;2.38;;;;;;;;;;5104459;27;20436;-63
2022/06/27 10:48:01;;;;;;;5.78;2.28;;;;;;;;;;5102918;27;20036;-63
2022/06/27 10:50:29;;;;;;;4.70;2.20;;;;;;;;;;5104617;27;20027;-62
2022/06/27 10:53:13;;;;;;;4.53;2.00;;;;;;;;;;5104765;27;20050;-62
2022/06/27 10:55:40;;;;;;;6.47;2.17;;;;;;;;;;5103979;27;20063;-62
2022/06/27 10:58:20;;;;;;;5.22;2.13;;;;;;;;;;5105277;27;20544;-62
2022/06/27 11:00:47;;;;;;;5.60;1.95;;;;;;;;;;5103546;27;20530;-63
2022/06/27 11:03:24;;;;;;;5.45;2.35;;;;;;;;;;5104194;27;21025;-62
2022/06/27 11:05:52;;;;;;;5.20;2.10;;;;;;;;;;5105134;27;20189;-62
2022/06/27 11:08:20;;;;;;;5.38;2.10;;;;;;;;;;5105373;27;20043;-62
2022/06/27 11:10:47;;;;;;;4.80;1.85;;;;;;;;;;5104515;27;20047;-62
2022/06/27 11:13:33;;;;;;;4.65;2.10;;;;;;;;;;5104248;27;20408;-62
2022/06/27 11:16:00;;;;;;;5.93;2.15;;;;;;;;;;5104755;27;20757;-62
2022/06/27 11:18:26;;;;;;;6.13;2.20;;;;;;;;;;5105334;27;20129;-62
2022/06/27 11:20:59;;;;;;;4.68;2.20;;;;;;;;;;5103433;27;20031;-62
2022/06/27 11:23:26;;;;;;;6.03;2.13;;;;;;;;;;5103749;27;20924;-62
2022/06/27 11:25:56;;;;;;;4.80;2.13;;;;;;;;;;5104227;27;20043;-62
2022/06/27 11:34:10;;;;;;;6.75;2.03;;;;;;;;;;5078825;28;20071;-62
2022/06/27 11:36:39;;;;;;;4.22;1.98;;;;;;;;;;5082845;28;20139;-59
2022/06/27 11:39:06;;;;;;;3.95;1.85;;;;;;;;;;5099252;27;20048;-63
2022/06/27 11:41:32;;;;;;;4.93;2.30;;;;;;;;;;5083910;28;20058;-65
2022/06/27 11:44:03;;;;;;;4.20;1.90;;;;;;;;;;5082602;28;20475;-64
2022/06/27 11:46:34;;;;;;;6.07;2.22;;;;;;;;;;5082239;28;20135;-64
2022/06/27 11:49:03;;;;;;;9.07;2.30;;;;;;;;;;5082927;28;20032;-64
2022/06/27 11:51:31;;;;;;;6.93;2.00;;;;;;;;;;5080986;28;20470;-64
2022/06/27 11:54:01;;;;;;;5.15;1.85;;;;;;;;;;5082752;28;20035;-64
2022/06/27 11:56:29;;;;;;;5.13;2.15;;;;;;;;;;5083839;28;20036;-64
2022/06/27 11:58:56;;;;;;;5.70;2.00;;;;;;;;;;5083767;28;20060;-64
2022/06/27 12:01:24;;;;;;;5.40;2.00;;;;;;;;;;5082364;28;20527;-64
2022/06/27 12:04:09;;;;;;;3.40;1.50;;;;;;;;;;5083970;28;20050;-64
2022/06/27 12:06:43;;;;;;;5.13;1.67;;;;;;;;;;5082059;28;20496;-64
2022/06/27 12:09:09;;;;;;;4.25;1.60;;;;;;;;;;5083098;28;20097;-62
2022/06/27 12:11:36;;;;;;;4.78;1.85;;;;;;;;;;5081880;28;20047;-62
2022/06/27 12:14:03;;;;;;;7.78;1.58;;;;;;;;;;5086013;28;20752;-63
2022/06/27 12:16:43;;;;;;;5.63;1.77;;;;;;;;;;5081953;28;20036;-62
2022/06/27 12:19:10;;;;;;;3.50;1.25;;;;;;;;;;5083871;28;20109;-62
2022/06/27 12:21:37;;;;;;;5.68;1.38;;;;;;;;;;5083247;28;20051;-62
2022/06/27 12:24:04;;;;;;;4.38;1.60;;;;;;;;;;5081432;28;20071;-63
2022/06/27 12:26:31;;;;;;;5.25;1.65;;;;;;;;;;5082073;28;20085;-62
2022/06/27 12:28:57;;;;;;;4.25;1.52;;;;;;;;;;5100211;27;20062;-62
2022/06/27 12:31:24;;;;;;;5.05;1.42;;;;;;;;;;5082962;28;20135;-61
2022/06/27 12:33:51;;;;;;;6.15;1.50;;;;;;;;;;5082096;28;20036;-62
2022/06/27 12:36:18;;;;;;;8.57;1.67;;;;;;;;;;5082823;28;20043;-62
2022/06/27 12:38:45;;;;;;;3.55;1.40;;;;;;;;;;5082629;28;20159;-62
2022/06/27 12:41:11;;;;;;;8.38;1.50;;;;;;;;;;5082257;28;20036;-62
2022/06/27 12:43:40;;;;;;;3.25;1.40;;;;;;;;;;5081650;28;20066;-62
2022/06/27 12:46:07;;;;;;;4.53;1.73;;;;;;;;;;5081710;28;20105;-62
2022/06/27 12:48:34;;;;;;;5.43;1.67;;;;;;;;;;5080892;28;20039;-61
2022/06/27 12:51:01;;;;;;;9.35;1.63;;;;;;;;;;5082573;28;20063;-62
2022/06/27 12:53:28;;;;;;;4.05;1.58;;;;;;;;;;5080134;28;20040;-61
2022/06/27 12:55:54;;;;;;;4.03;1.30;;;;;;;;;;5082183;28;20965;-61
2022/06/27 12:58:21;;;;;;;6.38;1.30;;;;;;;;;;5080627;28;20048;-61
2022/06/27 13:00:48;;;;;;;5.75;1.60;;;;;;;;;;5097311;28;20113;-61
2022/06/27 13:03:14;;;;;;;4.10;1.58;;;;;;;;;;5064415;28;20123;-61
2022/06/27 13:05:41;;;;;;;4.95;1.55;;;;;;;;;;5060997;28;20039;-63
2022/06/27 13:08:08;;;;;;;3.42;1.35;;;;;;;;;;5081964;28;20036;-62
2022/06/27 13:10:37;;;;;;;3.92;1.48;;;;;;;;;;5083662;28;20070;-61
2022/06/27 13:13:04;;;;;;;5.32;1.42;;;;;;;;;;5085430;28;20040;-61
2022/06/27 13:15:37;;;;;;;3.53;1.60;;;;;;;;;;5085510;28;20060;-61
2022/06/27 13:18:04;;;;;;;7.77;1.93;;;;;;;;;;5086472;28;20402;-62
2022/06/27 13:20:30;;;;;;;4.82;1.63;;;;;;;;;;5100924;27;20335;-61
2022/06/27 13:22:57;;;;;;;4.00;1.50;;;;;;;;;;5086109;28;20044;-62
2022/06/27 13:25:24;;;;;;;5.00;1.50;;;;;;;;;;5084225;28;20063;-62
2022/06/27 13:27:51;;;;;;;4.22;1.70;;;;;;;;;;5083304;28;20036;-62
2022/06/27 13:30:17;;;;;;;3.13;1.42;;;;;;;;;;5100561;27;20067;-62
2022/06/27 13:32:44;;;;;;;4.38;1.50;;;;;;;;;;5083718;28;20131;-62
2022/06/27 13:35:15;;;;;;;4.32;1.60;;;;;;;;;;5084429;28;20047;-62
2022/06/27 13:37:41;;;;;;;3.85;1.58;;;;;;;;;;5084489;28;20043;-62
2022/06/27 13:40:08;;;;;;;5.80;1.70;;;;;;;;;;5084292;28;20032;-62
2022/06/27 13:42:35;;;;;;;6.30;1.52;;;;;;;;;;5085408;28;20040;-62
2022/06/27 13:45:02;;;;;;;6.05;1.60;;;;;;;;;;5085143;28;20046;-60
2022/06/27 13:47:29;;;;;;;6.65;2.30;;;;;;;;;;5083824;28;21190;-61
2022/06/27 13:49:56;;;;;;;5.35;1.75;;;;;;;;;;5086554;28;20067;-61
2022/06/27 13:52:23;;;;;;;5.03;1.75;;;;;;;;;;5085420;28;21726;-61
2022/06/27 13:54:50;;;;;;;8.05;1.90;;;;;;;;;;5085328;28;20060;-61
2022/06/27 13:57:17;;;;;;;3.80;1.92;;;;;;;;;;5085786;28;21433;-60
2022/06/27 13:59:43;;;;;;;3.92;1.60;;;;;;;;;;5084033;28;20059;-61
2022/06/27 14:02:10;;;;;;;4.00;1.67;;;;;;;;;;5085024;28;20154;-62
2022/06/27 14:04:56;;;;;;;4.95;1.90;;;;;;;;;;5059031;28;20047;-61
2022/06/27 14:07:45;;;;;;;4.28;1.75;;;;;;;;;;5057556;28;20094;-61
2022/06/27 14:10:15;;;;;;;3.65;1.60;;;;;;;;;;5060681;28;20048;-61
2022/06/27 14:12:43;;;;;;;4.25;1.58;;;;;;;;;;5060504;28;20053;-61
2022/06/27 14:15:10;;;;;;;6.88;2.00;;;;;;;;;;5061558;28;20047;-62
2022/06/27 14:17:37;;;;;;;7.50;1.98;;;;;;;;;;5061303;28;20052;-62
2022/06/27 14:20:07;;;;;;;6.68;2.20;;;;;;;;;;5062900;28;20507;-63
2022/06/27 14:22:34;;;;;;;7.75;2.22;;;;;;;;;;5057160;28;20437;-61
2022/06/27 14:25:01;;;;;;;5.65;2.20;;;;;;;;;;5060650;28;20044;-62
2022/06/27 14:27:28;;;;;;;7.20;2.17;;;;;;;;;;5060710;28;20037;-62
2022/06/27 14:29:55;;;;;;;5.88;2.28;;;;;;;;;;5057805;28;20279;-61
2022/06/27 14:32:21;;;;;;;6.70;2.38;;;;;;;;;;5060819;28;20126;-61
2022/06/27 14:34:48;;;;;;;5.93;2.05;;;;;;;;;;5060670;28;20413;-62
2022/06/27 14:37:15;;;;;;;8.80;2.20;;;;;;;;;;5084727;28;20210;-60
2022/06/27 14:39:41;;;;;;;5.53;2.30;;;;;;;;;;5085420;28;20887;-62
2022/06/27 14:42:08;;;;;;;8.40;2.10;;;;;;;;;;5084463;28;20074;-62
2022/06/27 14:44:35;;;;;;;6.68;2.42;;;;;;;;;;5066657;28;20303;-62
2022/06/27 14:47:02;;;;;;;5.32;2.20;;;;;;;;;;5084858;28;21750;-62
2022/06/27 14:49:29;;;;;;;5.30;2.05;;;;;;;;;;5084439;28;20032;-62
2022/06/27 14:51:56;;;;;;;10.95;2.30;;;;;;;;;;5084950;28;20051;-61
2022/06/27 14:54:23;;;;;;;4.63;2.10;;;;;;;;;;5081841;28;20136;-62
2022/06/27 14:56:49;;;;;;;10.95;2.47;;;;;;;;;;5083680;28;20047;-62
2022/06/27 14:59:16;;;;;;;7.25;2.33;;;;;;;;;;5066784;28;20503;-62
2022/06/27 15:01:43;;;;;;;6.78;2.40;;;;;;;;;;5083945;28;20063;-62
2022/06/27 15:04:09;;;;;;;7.53;2.50;;;;;;;;;;5083127;28;20610;-62
2022/06/27 15:06:37;;;;;;;7.78;2.63;;;;;;;;;;5081031;28;20221;-62